sensor_id;sensor_type;location;lat;lon;timestamp;pressure;altitude;pressure_sealevel;temperature;humidity
6565;BME280;3316;44.118;27.258;2022-10-16T00:01:21;101990.13;;;9.16;100.00
6565;BME280;3316;44.118;27.258;2022-10-16T00:03:48;101985.81;;;9.20;100.00
6565;BME280;3316;44.118;27.258;2022-10-16T00:06:15;101985.69;;;9.14;100.00
6565;BME280;3316;44.118;27.258;2022-10-16T00:08:40;101987.53;;;9.19;100.00
6565;BME280;3316;44.118;27.258;2022-10-16T00:11:18;101993.66;;;9.18;100.00
6565;BME280;3316;44.118;27.258;2022-10-16T00:13:45;101995.41;;;9.18;100.00
6565;BME280;3316;44.118;27.258;2022-10-16T00:16:13;101991.75;;;9.10;100.00
6565;BME280;3316;44.118;27.258;2022-10-16T00:18:38;101999.75;;;9.16;100.00
6565;BME280;3316;44.118;27.258;2022-10-16T00:21:06;101981.31;;;9.13;100.00
6565;BME280;3316;44.118;27.258;2022-10-16T00:23:32;101973.22;;;8.99;100.00
6565;BME280;3316;44.118;27.258;2022-10-16T00:26:00;102016.31;;;9.12;100.00
6565;BME280;3316;44.118;27.258;2022-10-16T00:28:26;102015.38;;;9.10;100.00
6565;BME280;3316;44.118;27.258;2022-10-16T00:30:52;102025.88;;;9.10;100.00
6565;BME280;3316;44.118;27.258;2022-10-16T00:33:18;102024.13;;;9.09;100.00
6565;BME280;3316;44.118;27.258;2022-10-16T00:35:44;102012.63;;;9.02;100.00
6565;BME280;3316;44.118;27.258;2022-10-16T00:38:09;102029.31;;;9.06;100.00
6565;BME280;3316;44.118;27.258;2022-10-16T00:40:35;102019.72;;;9.06;100.00
6565;BME280;3316;44.118;27.258;2022-10-16T00:43:00;102015.25;;;9.02;100.00
6565;BME280;3316;44.118;27.258;2022-10-16T00:45:26;102030.25;;;9.09;100.00
6565;BME280;3316;44.118;27.258;2022-10-16T00:47:52;102040.63;;;9.03;100.00
6565;BME280;3316;44.118;27.258;2022-10-16T00:50:26;102033.63;;;9.02;100.00
6565;BME280;3316;44.118;27.258;2022-10-16T00:52:54;102031.69;;;8.92;100.00
6565;BME280;3316;44.118;27.258;2022-10-16T00:55:20;102036.81;;;8.86;100.00
6565;BME280;3316;44.118;27.258;2022-10-16T00:57:46;102044.69;;;8.84;100.00
6565;BME280;3316;44.118;27.258;2022-10-16T01:00:16;102038.34;;;8.73;100.00
6565;BME280;3316;44.118;27.258;2022-10-16T01:02:42;102038.53;;;8.84;100.00
6565;BME280;3316;44.118;27.258;2022-10-16T01:05:08;102047.44;;;8.92;100.00
6565;BME280;3316;44.118;27.258;2022-10-16T01:07:58;102046.53;;;8.90;100.00
6565;BME280;3316;44.118;27.258;2022-10-16T01:10:31;102036.81;;;8.86;100.00
6565;BME280;3316;44.118;27.258;2022-10-16T01:13:12;102038.47;;;8.79;100.00
6565;BME280;3316;44.118;27.258;2022-10-16T01:15:59;102051.66;;;8.84;100.00
6565;BME280;3316;44.118;27.258;2022-10-16T01:18:30;101921.47;;;8.02;100.00
6565;BME280;3316;44.118;27.258;2022-10-16T01:28:57;102037.19;;;8.59;100.00
6565;BME280;3316;44.118;27.258;2022-10-16T01:31:32;102050.56;;;8.71;100.00
6565;BME280;3316;44.118;27.258;2022-10-16T01:36:35;102056.78;;;8.78;100.00
6565;BME280;3316;44.118;27.258;2022-10-16T01:39:03;102054.94;;;8.72;100.00
6565;BME280;3316;44.118;27.258;2022-10-16T01:41:34;102052.13;;;8.63;100.00
6565;BME280;3316;44.118;27.258;2022-10-16T01:44:05;102053.09;;;8.68;100.00
6565;BME280;3316;44.118;27.258;2022-10-16T01:46:34;102060.91;;;8.64;100.00
6565;BME280;3316;44.118;27.258;2022-10-16T01:49:02;102064.50;;;8.69;100.00
6565;BME280;3316;44.118;27.258;2022-10-16T01:51:29;102028.91;;;8.40;100.00
6565;BME280;3316;44.118;27.258;2022-10-16T01:53:57;102068.78;;;8.64;100.00
6565;BME280;3316;44.118;27.258;2022-10-16T01:56:25;102077.63;;;8.70;100.00
6565;BME280;3316;44.118;27.258;2022-10-16T01:58:54;102064.34;;;8.63;100.00
6565;BME280;3316;44.118;27.258;2022-10-16T02:01:23;102059.94;;;8.60;100.00
6565;BME280;3316;44.118;27.258;2022-10-16T02:03:53;102073.91;;;8.59;100.00
6565;BME280;3316;44.118;27.258;2022-10-16T02:06:19;102045.63;;;8.45;100.00
6565;BME280;3316;44.118;27.258;2022-10-16T02:08:46;102079.28;;;8.64;100.00
6565;BME280;3316;44.118;27.258;2022-10-16T02:11:11;102080.84;;;8.56;100.00
6565;BME280;3316;44.118;27.258;2022-10-16T02:13:52;102092.25;;;8.58;100.00
6565;BME280;3316;44.118;27.258;2022-10-16T02:16:19;102077.03;;;8.42;100.00
6565;BME280;3316;44.118;27.258;2022-10-16T02:18:44;102079.56;;;8.37;100.00
6565;BME280;3316;44.118;27.258;2022-10-16T02:21:18;102089.25;;;8.41;100.00
6565;BME280;3316;44.118;27.258;2022-10-16T02:23:59;102091.81;;;8.38;100.00
6565;BME280;3316;44.118;27.258;2022-10-16T02:26:36;102097.25;;;8.47;100.00
6565;BME280;3316;44.118;27.258;2022-10-16T02:29:07;102091.66;;;8.31;100.00
6565;BME280;3316;44.118;27.258;2022-10-16T02:31:36;102091.84;;;8.40;100.00
6565;BME280;3316;44.118;27.258;2022-10-16T02:34:04;102094.44;;;8.38;100.00
6565;BME280;3316;44.118;27.258;2022-10-16T02:36:31;102095.41;;;8.42;100.00
6565;BME280;3316;44.118;27.258;2022-10-16T02:38:58;102095.13;;;8.30;100.00
6565;BME280;3316;44.118;27.258;2022-10-16T02:41:25;102072.13;;;8.20;100.00
6565;BME280;3316;44.118;27.258;2022-10-16T02:43:51;102083.72;;;8.28;100.00
6565;BME280;3316;44.118;27.258;2022-10-16T02:46:17;102096.03;;;8.32;100.00
6565;BME280;3316;44.118;27.258;2022-10-16T02:48:43;102090.69;;;8.27;100.00
6565;BME280;3316;44.118;27.258;2022-10-16T02:51:08;102108.34;;;8.34;100.00
6565;BME280;3316;44.118;27.258;2022-10-16T02:53:34;102109.91;;;8.26;100.00
6565;BME280;3316;44.118;27.258;2022-10-16T02:55:59;102112.66;;;8.31;100.00
6565;BME280;3316;44.118;27.258;2022-10-16T02:58:25;102037.31;;;7.86;100.00
6565;BME280;3316;44.118;27.258;2022-10-16T03:00:50;102087.69;;;8.12;100.00
6565;BME280;3316;44.118;27.258;2022-10-16T03:03:15;102106.75;;;8.03;100.00
6565;BME280;3316;44.118;27.258;2022-10-16T03:05:43;102112.69;;;7.98;100.00
6565;BME280;3316;44.118;27.258;2022-10-16T03:08:11;102100.94;;;7.81;100.00
6565;BME280;3316;44.118;27.258;2022-10-16T03:10:36;102096.31;;;7.71;100.00
6565;BME280;3316;44.118;27.258;2022-10-16T03:13:02;102116.84;;;7.88;100.00
6565;BME280;3316;44.118;27.258;2022-10-16T03:15:27;102123.88;;;7.89;100.00
6565;BME280;3316;44.118;27.258;2022-10-16T03:17:54;102112.13;;;7.74;100.00
6565;BME280;3316;44.118;27.258;2022-10-16T03:20:19;102113.16;;;7.80;100.00
6565;BME280;3316;44.118;27.258;2022-10-16T03:22:45;102090.84;;;7.60;100.00
6565;BME280;3316;44.118;27.258;2022-10-16T03:25:10;102110.28;;;7.70;100.00
6565;BME280;3316;44.118;27.258;2022-10-16T03:27:36;102126.16;;;7.76;100.00
6565;BME280;3316;44.118;27.258;2022-10-16T03:30:01;102141.72;;;7.70;100.00
6565;BME280;3316;44.118;27.258;2022-10-16T03:32:27;102125.72;;;7.59;100.00
6565;BME280;3316;44.118;27.258;2022-10-16T03:34:53;102131.91;;;7.63;100.00
6565;BME280;3316;44.118;27.258;2022-10-16T03:37:19;102125.63;;;7.55;100.00
6565;BME280;3316;44.118;27.258;2022-10-16T03:39:45;102087.47;;;7.32;100.00
6565;BME280;3316;44.118;27.258;2022-10-16T03:42:10;102129.03;;;7.52;100.00
6565;BME280;3316;44.118;27.258;2022-10-16T03:44:36;102121.97;;;7.50;100.00
6565;BME280;3316;44.118;27.258;2022-10-16T03:47:01;102121.09;;;7.49;100.00
6565;BME280;3316;44.118;27.258;2022-10-16T03:49:27;102113.69;;;7.33;100.00
6565;BME280;3316;44.118;27.258;2022-10-16T03:51:52;102122.63;;;7.41;100.00
6565;BME280;3316;44.118;27.258;2022-10-16T03:54:17;102109.53;;;7.41;100.00
6565;BME280;3316;44.118;27.258;2022-10-16T03:56:43;102119.16;;;7.42;100.00
6565;BME280;3316;44.118;27.258;2022-10-16T03:59:08;102115.84;;;7.49;100.00
6565;BME280;3316;44.118;27.258;2022-10-16T04:01:34;102103.94;;;7.28;100.00
6565;BME280;3316;44.118;27.258;2022-10-16T04:04:00;102101.31;;;7.28;100.00
6565;BME280;3316;44.118;27.258;2022-10-16T04:06:25;102103.94;;;7.28;100.00
6565;BME280;3316;44.118;27.258;2022-10-16T04:08:50;102109.84;;;7.20;100.00
6565;BME280;3316;44.118;27.258;2022-10-16T04:11:16;102101.22;;;7.23;100.00
6565;BME280;3316;44.118;27.258;2022-10-16T04:13:41;101995.00;;;6.67;100.00
6565;BME280;3316;44.118;27.258;2022-10-16T04:16:07;102109.47;;;7.38;100.00
6565;BME280;3316;44.118;27.258;2022-10-16T04:18:32;102099.75;;;7.34;100.00
6565;BME280;3316;44.118;27.258;2022-10-16T04:21:03;102109.16;;;7.28;100.00
6565;BME280;3316;44.118;27.258;2022-10-16T04:23:28;102114.53;;;7.32;100.00
6565;BME280;3316;44.118;27.258;2022-10-16T04:25:54;102108.97;;;7.20;100.00
6565;BME280;3316;44.118;27.258;2022-10-16T04:28:19;102120.34;;;7.20;100.00
6565;BME280;3316;44.118;27.258;2022-10-16T04:30:45;102090.34;;;7.08;100.00
6565;BME280;3316;44.118;27.258;2022-10-16T04:33:10;102133.78;;;7.34;100.00
6565;BME280;3316;44.118;27.258;2022-10-16T04:35:36;102118.06;;;7.34;100.00
6565;BME280;3316;44.118;27.258;2022-10-16T04:38:01;102110.38;;;7.40;100.00
6565;BME280;3316;44.118;27.258;2022-10-16T04:40:27;102079.53;;;7.29;100.00
6565;BME280;3316;44.118;27.258;2022-10-16T04:42:52;102121.34;;;7.58;100.00
6565;BME280;3316;44.118;27.258;2022-10-16T04:45:18;102138.13;;;7.66;100.00
6565;BME280;3316;44.118;27.258;2022-10-16T04:47:43;102102.75;;;7.49;100.00
6565;BME280;3316;44.118;27.258;2022-10-16T04:50:08;102137.81;;;7.88;100.00
6565;BME280;3316;44.118;27.258;2022-10-16T04:52:34;102140.41;;;8.60;100.00
6565;BME280;3316;44.118;27.258;2022-10-16T04:54:59;102132.59;;;9.52;100.00
6565;BME280;3316;44.118;27.258;2022-10-16T04:57:28;102112.06;;;10.35;100.00
6565;BME280;3316;44.118;27.258;2022-10-16T04:59:54;102153.78;;;11.41;100.00
6565;BME280;3316;44.118;27.258;2022-10-16T05:02:19;102149.19;;;12.16;100.00
6565;BME280;3316;44.118;27.258;2022-10-16T05:04:45;102116.13;;;12.89;100.00
6565;BME280;3316;44.118;27.258;2022-10-16T05:07:10;102156.88;;;13.56;100.00
6565;BME280;3316;44.118;27.258;2022-10-16T05:09:36;102150.75;;;14.23;97.55
6565;BME280;3316;44.118;27.258;2022-10-16T05:12:01;102143.47;;;14.98;90.36
6565;BME280;3316;44.118;27.258;2022-10-16T05:14:28;102165.72;;;16.15;77.51
6565;BME280;3316;44.118;27.258;2022-10-16T05:16:54;102155.50;;;16.67;70.14
6565;BME280;3316;44.118;27.258;2022-10-16T05:19:19;102149.28;;;17.38;64.26
6565;BME280;3316;44.118;27.258;2022-10-16T05:21:45;102171.94;;;18.21;57.84
6565;BME280;3316;44.118;27.258;2022-10-16T05:24:10;102168.09;;;18.35;54.33
6565;BME280;3316;44.118;27.258;2022-10-16T05:26:36;102152.50;;;18.64;54.03
6565;BME280;3316;44.118;27.258;2022-10-16T05:29:01;102161.78;;;19.31;51.77
6565;BME280;3316;44.118;27.258;2022-10-16T05:31:27;102193.72;;;20.12;49.28
6565;BME280;3316;44.118;27.258;2022-10-16T05:33:58;102208.81;;;20.82;47.07
6565;BME280;3316;44.118;27.258;2022-10-16T05:36:24;102164.56;;;21.01;46.38
6565;BME280;3316;44.118;27.258;2022-10-16T05:38:50;102213.84;;;21.24;45.78
6565;BME280;3316;44.118;27.258;2022-10-16T05:41:16;102217.16;;;21.62;44.74
6565;BME280;3316;44.118;27.258;2022-10-16T05:43:47;102231.28;;;21.68;43.95
6565;BME280;3316;44.118;27.258;2022-10-16T05:46:12;102219.63;;;22.51;43.01
6565;BME280;3316;44.118;27.258;2022-10-16T05:48:38;102231.63;;;23.39;40.31
6565;BME280;3316;44.118;27.258;2022-10-16T05:51:06;102235.03;;;23.67;39.42
6565;BME280;3316;44.118;27.258;2022-10-16T05:53:34;102243.41;;;23.81;38.83
6565;BME280;3316;44.118;27.258;2022-10-16T05:56:00;102231.66;;;23.84;38.13
6565;BME280;3316;44.118;27.258;2022-10-16T05:58:29;102235.00;;;24.34;37.91
6565;BME280;3316;44.118;27.258;2022-10-16T06:01:18;102248.25;;;25.39;35.55
6565;BME280;3316;44.118;27.258;2022-10-16T06:03:44;102241.75;;;25.24;35.41
6565;BME280;3316;44.118;27.258;2022-10-16T06:06:21;102250.53;;;25.09;35.90
6565;BME280;3316;44.118;27.258;2022-10-16T06:08:48;102244.06;;;24.93;35.98
6565;BME280;3316;44.118;27.258;2022-10-16T06:11:23;102235.63;;;25.41;35.16
6565;BME280;3316;44.118;27.258;2022-10-16T06:13:50;102269.56;;;26.01;34.66
6565;BME280;3316;44.118;27.258;2022-10-16T06:16:16;102266.41;;;26.11;33.57
6565;BME280;3316;44.118;27.258;2022-10-16T06:18:42;102282.34;;;26.52;32.98
6565;BME280;3316;44.118;27.258;2022-10-16T06:21:09;102273.03;;;26.40;32.71
6565;BME280;3316;44.118;27.258;2022-10-16T06:23:35;102275.72;;;26.23;33.88
6565;BME280;3316;44.118;27.258;2022-10-16T06:26:08;102294.13;;;26.68;32.97
6565;BME280;3316;44.118;27.258;2022-10-16T06:28:34;102288.94;;;27.49;30.90
6565;BME280;3316;44.118;27.258;2022-10-16T06:31:01;102296.69;;;28.18;29.31
6565;BME280;3316;44.118;27.258;2022-10-16T06:33:27;102304.88;;;28.48;28.88
6565;BME280;3316;44.118;27.258;2022-10-16T06:35:52;102296.44;;;28.39;28.55
6565;BME280;3316;44.118;27.258;2022-10-16T06:38:18;102290.41;;;28.94;27.88
6565;BME280;3316;44.118;27.258;2022-10-16T06:40:43;102300.94;;;29.29;27.43
6565;BME280;3316;44.118;27.258;2022-10-16T06:43:09;102304.91;;;29.23;27.52
6565;BME280;3316;44.118;27.258;2022-10-16T06:45:34;102305.84;;;29.22;27.38
6565;BME280;3316;44.118;27.258;2022-10-16T06:47:59;102316.22;;;30.14;26.52
6565;BME280;3316;44.118;27.258;2022-10-16T06:50:25;102305.34;;;30.82;25.55
6565;BME280;3316;44.118;27.258;2022-10-16T06:52:50;102309.06;;;30.13;26.10
6565;BME280;3316;44.118;27.258;2022-10-16T06:55:16;102297.13;;;30.69;25.59
6565;BME280;3316;44.118;27.258;2022-10-16T06:57:42;102301.25;;;30.62;25.71
6565;BME280;3316;44.118;27.258;2022-10-16T07:00:09;102313.78;;;31.16;25.15
6565;BME280;3316;44.118;27.258;2022-10-16T07:02:34;102318.63;;;31.38;24.72
6565;BME280;3316;44.118;27.258;2022-10-16T07:04:59;102300.13;;;30.52;25.00
6565;BME280;3316;44.118;27.258;2022-10-16T07:07:25;102318.19;;;30.92;24.74
6565;BME280;3316;44.118;27.258;2022-10-16T07:09:51;102317.38;;;30.10;26.06
6565;BME280;3316;44.118;27.258;2022-10-16T07:12:17;102326.31;;;29.42;26.53
6565;BME280;3316;44.118;27.258;2022-10-16T07:14:42;102328.84;;;30.01;26.08
6565;BME280;3316;44.118;27.258;2022-10-16T07:17:08;102329.03;;;30.12;26.06
6565;BME280;3316;44.118;27.258;2022-10-16T07:19:34;102330.97;;;30.51;25.55
6565;BME280;3316;44.118;27.258;2022-10-16T07:21:59;102325.50;;;30.38;25.32
6565;BME280;3316;44.118;27.258;2022-10-16T07:24:25;102325.09;;;30.04;25.94
6565;BME280;3316;44.118;27.258;2022-10-16T07:26:50;102326.47;;;30.37;25.56
6565;BME280;3316;44.118;27.258;2022-10-16T07:29:19;102335.00;;;30.72;25.20
6565;BME280;3316;44.118;27.258;2022-10-16T07:31:45;102334.72;;;31.41;24.22
6565;BME280;3316;44.118;27.258;2022-10-16T07:34:12;102338.81;;;31.84;23.96
6565;BME280;3316;44.118;27.258;2022-10-16T07:36:39;102334.75;;;32.15;24.29
6565;BME280;3316;44.118;27.258;2022-10-16T07:39:04;102339.00;;;32.19;24.22
6565;BME280;3316;44.118;27.258;2022-10-16T07:41:30;102353.50;;;32.19;23.59
6565;BME280;3316;44.118;27.258;2022-10-16T07:43:57;102351.31;;;32.61;23.30
6565;BME280;3316;44.118;27.258;2022-10-16T07:46:25;102346.31;;;32.42;23.23
6565;BME280;3316;44.118;27.258;2022-10-16T07:48:52;102356.75;;;32.84;22.75
6565;BME280;3316;44.118;27.258;2022-10-16T07:51:19;102353.28;;;32.59;23.05
6565;BME280;3316;44.118;27.258;2022-10-16T07:53:46;102352.53;;;33.15;22.49
6565;BME280;3316;44.118;27.258;2022-10-16T07:56:12;102343.41;;;32.69;23.08
6565;BME280;3316;44.118;27.258;2022-10-16T07:58:38;102344.13;;;32.11;22.96
6565;BME280;3316;44.118;27.258;2022-10-16T08:01:09;102347.03;;;31.97;23.81
6565;BME280;3316;44.118;27.258;2022-10-16T08:03:35;102361.72;;;31.44;24.21
6565;BME280;3316;44.118;27.258;2022-10-16T08:06:01;102343.31;;;31.60;23.94
6565;BME280;3316;44.118;27.258;2022-10-16T08:08:27;102352.72;;;32.30;22.90
6565;BME280;3316;44.118;27.258;2022-10-16T08:10:53;102359.94;;;32.42;23.18
6565;BME280;3316;44.118;27.258;2022-10-16T08:13:19;102359.06;;;32.78;22.85
6565;BME280;3316;44.118;27.258;2022-10-16T08:15:45;102347.28;;;32.77;22.72
6565;BME280;3316;44.118;27.258;2022-10-16T08:18:12;102343.19;;;31.74;23.27
6565;BME280;3316;44.118;27.258;2022-10-16T08:20:38;102346.22;;;31.32;23.59
6565;BME280;3316;44.118;27.258;2022-10-16T08:23:04;102312.28;;;32.24;22.87
6565;BME280;3316;44.118;27.258;2022-10-16T08:25:29;102313.69;;;32.29;22.83
6565;BME280;3316;44.118;27.258;2022-10-16T08:27:55;102354.84;;;32.97;22.59
6565;BME280;3316;44.118;27.258;2022-10-16T08:30:22;102357.75;;;33.64;21.87
6565;BME280;3316;44.118;27.258;2022-10-16T08:32:47;102350.94;;;33.58;21.58
6565;BME280;3316;44.118;27.258;2022-10-16T08:35:14;102350.78;;;33.71;21.84
6565;BME280;3316;44.118;27.258;2022-10-16T08:37:40;102338.97;;;33.02;22.03
6565;BME280;3316;44.118;27.258;2022-10-16T08:40:07;102326.50;;;33.11;22.62
6565;BME280;3316;44.118;27.258;2022-10-16T08:42:51;102342.34;;;32.82;22.75
6565;BME280;3316;44.118;27.258;2022-10-16T08:45:33;102316.31;;;33.02;22.19
6565;BME280;3316;44.118;27.258;2022-10-16T08:50:52;102339.28;;;33.78;21.57
6565;BME280;3316;44.118;27.258;2022-10-16T08:53:31;102356.44;;;33.46;21.95
6565;BME280;3316;44.118;27.258;2022-10-16T08:55:59;102353.66;;;32.89;21.89
6565;BME280;3316;44.118;27.258;2022-10-16T08:58:29;102345.03;;;32.35;22.43
6565;BME280;3316;44.118;27.258;2022-10-16T09:01:00;102347.13;;;32.68;21.98
6565;BME280;3316;44.118;27.258;2022-10-16T09:09:01;102307.38;;;31.42;23.31
6565;BME280;3316;44.118;27.258;2022-10-16T09:15:06;102332.69;;;30.66;23.79
6565;BME280;3316;44.118;27.258;2022-10-16T09:22:47;102321.66;;;28.70;26.01
6565;BME280;3316;44.118;27.258;2022-10-16T09:25:20;102314.06;;;27.83;26.81
6565;BME280;3316;44.118;27.258;2022-10-16T09:27:48;102313.78;;;27.05;27.83
6565;BME280;3316;44.118;27.258;2022-10-16T09:30:18;102310.50;;;26.29;29.28
6565;BME280;3316;44.118;27.258;2022-10-16T09:32:45;102301.44;;;25.15;30.55
6565;BME280;3316;44.118;27.258;2022-10-16T09:35:20;102305.22;;;24.69;31.17
6565;BME280;3316;44.118;27.258;2022-10-16T09:37:49;102296.50;;;24.43;31.89
6565;BME280;3316;44.118;27.258;2022-10-16T09:40:32;102305.00;;;24.11;32.55
6565;BME280;3316;44.118;27.258;2022-10-16T09:48:57;102291.28;;;22.99;34.73
6565;BME280;3316;44.118;27.258;2022-10-16T09:53:58;102278.94;;;23.19;34.93
6565;BME280;3316;44.118;27.258;2022-10-16T09:56:30;102280.47;;;22.76;34.94
6565;BME280;3316;44.118;27.258;2022-10-16T09:58:59;102274.13;;;22.79;34.99
6565;BME280;3316;44.118;27.258;2022-10-16T10:01:45;102279.00;;;22.92;35.30
6565;BME280;3316;44.118;27.258;2022-10-16T10:04:11;102269.84;;;22.73;35.20
6565;BME280;3316;44.118;27.258;2022-10-16T10:06:42;102254.56;;;22.75;35.13
6565;BME280;3316;44.118;27.258;2022-10-16T10:09:24;102266.91;;;22.53;35.54
6565;BME280;3316;44.118;27.258;2022-10-16T10:11:58;102274.53;;;22.41;35.93
6565;BME280;3316;44.118;27.258;2022-10-16T10:14:27;102265.41;;;22.19;35.80
6565;BME280;3316;44.118;27.258;2022-10-16T10:17:30;102277.34;;;22.36;35.26
6565;BME280;3316;44.118;27.258;2022-10-16T10:20:00;102267.06;;;22.23;35.75
6565;BME280;3316;44.118;27.258;2022-10-16T10:22:40;102274.22;;;21.94;35.71
6565;BME280;3316;44.118;27.258;2022-10-16T10:25:31;102253.63;;;21.67;36.13
6565;BME280;3316;44.118;27.258;2022-10-16T10:33:37;102259.28;;;21.87;37.28
6565;BME280;3316;44.118;27.258;2022-10-16T10:36:24;102257.09;;;21.71;36.36
6565;BME280;3316;44.118;27.258;2022-10-16T10:47:31;102243.47;;;21.78;35.42
6565;BME280;3316;44.118;27.258;2022-10-16T10:50:14;102234.25;;;21.88;35.63
6565;BME280;3316;44.118;27.258;2022-10-16T11:01:14;102245.63;;;21.95;36.02
6565;BME280;3316;44.118;27.258;2022-10-16T11:06:20;102230.13;;;22.04;35.84
6565;BME280;3316;44.118;27.258;2022-10-16T11:11:41;102227.69;;;21.97;34.65
6565;BME280;3316;44.118;27.258;2022-10-16T11:17:11;102231.16;;;20.81;37.20
6565;BME280;3316;44.118;27.258;2022-10-16T11:19:44;102225.91;;;21.10;36.92
6565;BME280;3316;44.118;27.258;2022-10-16T11:25:29;102214.47;;;20.71;38.37
6565;BME280;3316;44.118;27.258;2022-10-16T11:28:01;102219.63;;;20.45;38.57
6565;BME280;3316;44.118;27.258;2022-10-16T11:30:31;102220.81;;;20.67;38.25
6565;BME280;3316;44.118;27.258;2022-10-16T11:33:10;102175.41;;;20.95;37.93
6565;BME280;3316;44.118;27.258;2022-10-16T11:35:48;102214.78;;;21.53;37.92
6565;BME280;3316;44.118;27.258;2022-10-16T11:41:29;102216.72;;;21.48;38.01
6565;BME280;3316;44.118;27.258;2022-10-16T11:49:53;102224.31;;;21.34;38.63
6565;BME280;3316;44.118;27.258;2022-10-16T11:52:40;102223.22;;;21.10;37.88
6565;BME280;3316;44.118;27.258;2022-10-16T11:55:17;102218.41;;;21.21;37.42
6565;BME280;3316;44.118;27.258;2022-10-16T11:57:57;102224.28;;;21.03;37.32
6565;BME280;3316;44.118;27.258;2022-10-16T12:00:28;102227.28;;;20.59;38.05
6565;BME280;3316;44.118;27.258;2022-10-16T12:08:20;102233.81;;;20.81;38.22
6565;BME280;3316;44.118;27.258;2022-10-16T12:10:48;102222.97;;;20.85;38.33
6565;BME280;3316;44.118;27.258;2022-10-16T12:13:34;102223.59;;;20.95;38.05
6565;BME280;3316;44.118;27.258;2022-10-16T12:16:32;102226.44;;;20.57;38.79
6565;BME280;3316;44.118;27.258;2022-10-16T12:19:11;102224.75;;;20.53;38.21
6565;BME280;3316;44.118;27.258;2022-10-16T12:21:37;102224.56;;;20.60;38.20
6565;BME280;3316;44.118;27.258;2022-10-16T12:24:03;102233.16;;;20.73;37.80
6565;BME280;3316;44.118;27.258;2022-10-16T12:26:32;102218.16;;;20.66;37.49
6565;BME280;3316;44.118;27.258;2022-10-16T12:29:28;102216.06;;;20.45;37.91
6565;BME280;3316;44.118;27.258;2022-10-16T12:31:55;102227.84;;;20.37;38.63
6565;BME280;3316;44.118;27.258;2022-10-16T12:37:09;102224.03;;;20.11;38.61
6565;BME280;3316;44.118;27.258;2022-10-16T12:39:36;102220.88;;;20.30;38.40
6565;BME280;3316;44.118;27.258;2022-10-16T12:42:05;102218.09;;;20.35;38.41
6565;BME280;3316;44.118;27.258;2022-10-16T12:44:33;102230.91;;;20.21;38.05
6565;BME280;3316;44.118;27.258;2022-10-16T12:46:59;102244.94;;;20.30;38.49
6565;BME280;3316;44.118;27.258;2022-10-16T12:51:54;102237.25;;;20.15;38.16
6565;BME280;3316;44.118;27.258;2022-10-16T13:07:45;102245.81;;;20.31;37.95
6565;BME280;3316;44.118;27.258;2022-10-16T13:25:04;102244.38;;;20.16;37.79
6565;BME280;3316;44.118;27.258;2022-10-16T13:27:35;102244.41;;;20.15;38.37
6565;BME280;3316;44.118;27.258;2022-10-16T13:30:12;102245.75;;;19.96;37.72
6565;BME280;3316;44.118;27.258;2022-10-16T13:32:39;102236.19;;;19.87;38.48
6565;BME280;3316;44.118;27.258;2022-10-16T13:35:19;102243.22;;;19.90;38.06
6565;BME280;3316;44.118;27.258;2022-10-16T13:37:45;102248.34;;;19.61;39.28
6565;BME280;3316;44.118;27.258;2022-10-16T13:40:24;102239.81;;;19.43;40.04
6565;BME280;3316;44.118;27.258;2022-10-16T13:42:50;102254.06;;;19.44;39.80
6565;BME280;3316;44.118;27.258;2022-10-16T13:45:23;102249.22;;;19.18;39.82
6565;BME280;3316;44.118;27.258;2022-10-16T13:48:09;102259.28;;;19.04;40.64
6565;BME280;3316;44.118;27.258;2022-10-16T13:50:37;102256.47;;;19.13;40.81
6565;BME280;3316;44.118;27.258;2022-10-16T13:53:06;102260.41;;;19.38;40.39
6565;BME280;3316;44.118;27.258;2022-10-16T13:55:33;102264.63;;;19.50;40.36
6565;BME280;3316;44.118;27.258;2022-10-16T13:58:11;102255.97;;;19.37;40.43
6565;BME280;3316;44.118;27.258;2022-10-16T14:00:37;102247.13;;;19.35;40.52
6565;BME280;3316;44.118;27.258;2022-10-16T14:03:12;102269.97;;;19.48;39.33
6565;BME280;3316;44.118;27.258;2022-10-16T14:05:47;102261.44;;;19.30;39.67
6565;BME280;3316;44.118;27.258;2022-10-16T14:08:13;102263.22;;;19.32;40.32
6565;BME280;3316;44.118;27.258;2022-10-16T14:10:38;102226.75;;;18.86;39.47
6565;BME280;3316;44.118;27.258;2022-10-16T14:13:06;102262.22;;;18.91;39.94
6565;BME280;3316;44.118;27.258;2022-10-16T14:15:35;102252.47;;;18.88;39.72
6565;BME280;3316;44.118;27.258;2022-10-16T14:18:01;102267.38;;;19.00;39.79
6565;BME280;3316;44.118;27.258;2022-10-16T14:20:30;102271.75;;;19.04;40.89
6565;BME280;3316;44.118;27.258;2022-10-16T14:23:02;102221.28;;;18.93;40.01
6565;BME280;3316;44.118;27.258;2022-10-16T14:25:31;102249.44;;;19.08;40.37
6565;BME280;3316;44.118;27.258;2022-10-16T14:28:13;102262.78;;;19.08;40.92
6565;BME280;3316;44.118;27.258;2022-10-16T14:30:56;102248.69;;;19.00;41.04
6565;BME280;3316;44.118;27.258;2022-10-16T14:33:23;102272.50;;;19.10;40.95
6565;BME280;3316;44.118;27.258;2022-10-16T14:38:36;102267.50;;;18.94;41.92
6565;BME280;3316;44.118;27.258;2022-10-16T14:41:03;102273.88;;;18.85;42.03
6565;BME280;3316;44.118;27.258;2022-10-16T14:45:59;102273.16;;;18.77;43.56
6565;BME280;3316;44.118;27.258;2022-10-16T14:48:26;102282.91;;;18.78;42.92
6565;BME280;3316;44.118;27.258;2022-10-16T14:50:52;102277.84;;;18.63;42.66
6565;BME280;3316;44.118;27.258;2022-10-16T14:53:17;102275.41;;;18.49;43.27
6565;BME280;3316;44.118;27.258;2022-10-16T14:55:43;102294.03;;;18.51;43.49
6565;BME280;3316;44.118;27.258;2022-10-16T14:58:19;102288.88;;;18.40;43.91
6565;BME280;3316;44.118;27.258;2022-10-16T15:00:46;102289.91;;;18.30;44.43
6565;BME280;3316;44.118;27.258;2022-10-16T15:03:11;102280.50;;;18.07;45.87
6565;BME280;3316;44.118;27.258;2022-10-16T15:05:37;102299.25;;;18.02;45.90
6565;BME280;3316;44.118;27.258;2022-10-16T15:08:03;102297.66;;;17.88;45.87
6565;BME280;3316;44.118;27.258;2022-10-16T15:10:30;102289.88;;;17.74;47.11
6565;BME280;3316;44.118;27.258;2022-10-16T15:12:57;102288.28;;;17.61;47.33